ilmateenistus.ee keskkonnaagentuur.ee
EETN Tallinna lennuväli
FTEO31 EETN 130500
TAF EETN 130515Z 1306/1406 07012KT 9999 SCT008 BKN020 TEMPO 1306/1316
    2000 SHSNRA BKN006 SCT012CB OVC015 TEMPO 1320/1406 2000 SHSN BKN008
    SCT012CB BKN020 PROB30 TEMPO 1403/1406 -FZDZ=

METAR EETN 130520Z 07011KT 9999 -SN OVC011 01/M01 Q1030 R08/550395 NOSIG=
Tallinna lennuväli
EEKA Kärdla lennuväli
FCEO32 EETN 130400
TAF EEKA 130400Z 1305/1311 06015KT 9999 BKN012 OVC020 TEMPO 1305/1311
    2000 SHSNRA BKN006 SCT015CB BKN020=

METAR EEKA 130550Z 05008KT 010V100 9999 FEW009 SCT023 02/00 Q1030=
Kärdla lennuväli
EEKE Kuressaare lennuväli
METAR EEKE 130550Z 04009KT 010V070 9999 -SN BKN013 OVC016 00/M01 Q1029 R17/490095=
Kuressaare lennuväli
EEPU Pärnu lennuväli
METAR EEPU 130450Z NIL=
Pärnu lennuväli
EETU Tartu lennuväli
METAR EETU 130550Z AUTO 06009KT 4100 -SN OVC005/// M01/M01 Q1028=
Tartu lennuväli
EEEI Ämari lennuväli
METAR EEEI 130450Z 03007KT 9999 -SN SCT006 SCT013 OVC026 00/M00 Q1030 R06/190095 TEMPO 5000 SN=
Ämari lennuväli